Aeroporto :
LOGIN :

Iscrizione | Disclaimer

   EN    FR    IT 

 










Sommario :    VFR   VFR Marginale   IFR   IFR Intensivo   IFR Molto Intensivo
Visibilità : 
Base nubi : 
>= 8 km
>= 3000ft
5 / 8 km
1000 / 3000 ft
1500m / 5 km
500 / 1000 ft
800 / 1500m
200 / 500 ft
< 800m
< 200 ft
Simboli :   Temporali  Nebbia  Neve Forte  Precipitazioni Forti  Vento > 20 kt
SIGMETs :   Varie  Temporali  Ghiacco  Turbolenza  Onda orograficha  Ceneri Vulcaniche






- Altitudine del aeroporto : 102 ft
- Codice IATA : CNG


LFBG - Cognac

ULTIMO METAR :
  • 231330Z AUTO 20014KT 9999 SCT038 BKN044 BKN050 25/14 Q1007 TEMPO 20015G30KT 3000 SHRA BKN040TCU

METARs OBSOLETI :
  • 231300Z AUTO 19014KT 9999 SCT033 BKN042 BKN074 25/14 Q1007 TEMPO 20015G30KT 3000 SHRA BKN040TCU
  • 231230Z AUTO 17013KT 9999 FEW032 OVC074 23/15 Q1007 TEMPO 20015G30KT 3000 SHRA BKN040TCU
  • 231200Z AUTO 17013KT 9999 SCT033 BKN043 OVC088 23/15 Q1008 TEMPO 20015G30KT 3000 SHRA BKN040TCU
  • 231130Z AUTO 18012KT 9999 FEW027 BKN042 BKN050 23/15 Q1008 TEMPO 20015G30KT 3000 SHRA BKN040TCU
  • 231100Z AUTO 15010KT 9999 FEW040 SCT056 BKN100 22/15 Q1008 TEMPO 20015G30KT 3000 SHRA BKN040TCU

TAF TAF LFBG
Valido dal 23 a 09 ore il 24 a 09 ore UTC


230800Z 2309/2409 16008KT 9999 SCT007 BKN060
TEMPO 2311/2403 20015G30KT 3000 SHRA BKN040TCU



MetMap, La meteo Aeronautica in un colpo d'occhio ! - Copyright ORBIFLY Dicembre 2007 - Disclaimer

ORBIFLY MET'MAP TEAM :

Programmazione e sviluppo : Alexandra Zaïnal
Concezione : Baudouin d'Aumeries
Aiuto per la programmazione : Marc-Olivier Méhu
Supporto tecnico e logistico : Manuel Goepfert
Aiuto per la traduzione : Arnaldo La Scala

Contatto : metmap@orbifly.com




FONTI E CREDITI :

   NOAA